createdAt,value
2022-12-28T00:02:53.215Z,9.13
2022-12-28T00:05:21.499Z,9.12
2022-12-28T00:07:49.751Z,9.12
2022-12-28T00:10:17.987Z,9.12
2022-12-28T00:21:25.191Z,9.14
2022-12-28T00:25:15.829Z,9.29
2022-12-28T00:35:25.336Z,9.14
2022-12-28T00:39:15.824Z,9.12
2022-12-28T00:53:07.660Z,9.1
2022-12-28T00:59:18.355Z,9.2
2022-12-28T01:04:23.068Z,9.27
2022-12-28T01:08:05.433Z,9.31
2022-12-28T01:11:47.847Z,9.35
2022-12-28T01:16:44.438Z,9.27
2022-12-28T01:19:12.663Z,9.28
2022-12-28T01:22:54.996Z,9.3
2022-12-28T01:26:37.430Z,9.3
2022-12-28T01:30:19.863Z,9.32
2022-12-28T01:35:16.391Z,9.39
2022-12-28T01:37:44.614Z,9.39
2022-12-28T01:41:35.254Z,9.45
2022-12-28T01:44:03.481Z,9.47
2022-12-28T01:46:31.781Z,9.5
2022-12-28T01:49:00.070Z,9.51
2022-12-28T01:51:28.287Z,9.46
2022-12-28T01:53:56.595Z,9.43
2022-12-28T01:59:50.862Z,9.35
2022-12-28T02:02:19.335Z,9.39
2022-12-28T02:04:47.401Z,9.39
2022-12-28T02:08:29.754Z,9.35
2022-12-28T02:10:58.044Z,9.39
2022-12-28T02:14:40.426Z,9.51
2022-12-28T02:18:22.817Z,9.45
2022-12-28T02:22:05.267Z,9.5
2022-12-28T02:24:33.503Z,9.49
2022-12-28T02:28:15.943Z,9.52
2022-12-28T02:31:58.299Z,9.45
2022-12-28T02:38:25.368Z,9.33
2022-12-28T02:46:14.752Z,9.39
2022-12-28T02:50:05.469Z,9.45
2022-12-28T02:55:18.221Z,9.53
2022-12-28T03:00:14.798Z,9.53
2022-12-28T03:05:19.564Z,9.49
2022-12-28T03:09:10.125Z,9.49
2022-12-28T03:14:23.012Z,9.47
2022-12-28T03:19:11.365Z,9.22
2022-12-28T03:24:19.166Z,9.38
2022-12-28T03:29:12.627Z,9.42
2022-12-28T03:34:09.160Z,9.58
2022-12-28T03:39:05.698Z,9.54
2022-12-28T03:42:56.244Z,9.5
2022-12-28T03:46:46.887Z,9.57
2022-12-28T03:49:15.157Z,9.53
2022-12-28T03:54:19.933Z,9.56
2022-12-28T03:59:16.390Z,9.59
2022-12-28T04:04:21.110Z,9.63
2022-12-28T04:09:17.630Z,9.72
2022-12-28T04:13:00.067Z,9.79
2022-12-28T04:16:42.464Z,9.83
2022-12-28T04:19:10.735Z,9.87
2022-12-28T04:22:53.076Z,9.89
2022-12-28T04:25:21.371Z,9.87
2022-12-28T04:29:11.997Z,9.83
2022-12-28T04:34:08.542Z,9.74
2022-12-28T04:39:05.126Z,9.64
2022-12-28T04:45:07.492Z,9.71
2022-12-28T04:51:18.184Z,9.75
2022-12-28T04:56:14.700Z,9.81
2022-12-28T05:01:11.270Z,9.74
2022-12-28T05:06:07.746Z,9.7
2022-12-28T05:12:18.443Z,9.7
2022-12-28T05:22:11.472Z,9.55
2022-12-28T05:27:08.035Z,9.8
2022-12-28T05:30:58.623Z,9.82
2022-12-28T05:34:49.280Z,9.88
2022-12-28T05:38:31.601Z,9.93
2022-12-28T05:43:36.363Z,9.93
2022-12-28T05:47:26.957Z,9.78
2022-12-28T05:51:17.505Z,9.64
2022-12-28T05:55:08.171Z,9.56
2022-12-28T05:57:36.416Z,9.52
2022-12-28T06:00:04.642Z,9.6
2022-12-28T06:03:47.032Z,9.56
2022-12-28T06:08:43.608Z,9.59
2022-12-28T06:12:26.017Z,9.77
2022-12-28T06:16:16.552Z,9.87
2022-12-28T06:20:07.176Z,9.93
2022-12-28T06:26:17.867Z,9.87
2022-12-28T06:33:59.278Z,9.8
2022-12-28T06:37:49.576Z,9.87
2022-12-28T06:40:18.199Z,9.89
2022-12-28T06:43:43.924Z,9.88
2022-12-28T06:46:12.290Z,9.93
2022-12-28T06:48:40.412Z,9.97
2022-12-28T06:51:08.697Z,10
2022-12-28T06:53:36.962Z,10.02
2022-12-28T06:56:05.246Z,10.07
2022-12-28T06:58:33.487Z,10.14
2022-12-28T07:01:01.813Z,10.16
2022-12-28T07:03:30.057Z,10.13
2022-12-28T07:08:26.525Z,10.16
2022-12-28T07:10:54.812Z,10.14
2022-12-28T07:13:27.914Z,10.16
2022-12-28T07:15:51.347Z,10.14
2022-12-28T07:18:19.658Z,10.04
2022-12-28T07:20:47.887Z,10.04
2022-12-28T07:23:16.171Z,10.07
2022-12-28T07:25:44.427Z,10.08
2022-12-28T07:28:12.720Z,10.12
2022-12-28T07:30:41.035Z,10.13
2022-12-28T07:34:23.362Z,10.14
2022-12-28T07:38:17.935Z,10.2
2022-12-28T07:43:10.449Z,10.22
2022-12-28T07:48:15.239Z,10.35
2022-12-28T07:53:12.468Z,9.66
2022-12-28T07:58:08.325Z,10.37
2022-12-28T08:03:13.048Z,10.29
2022-12-28T08:08:17.762Z,10.32
2022-12-28T08:13:14.248Z,10.3
2022-12-28T08:16:56.650Z,10.43
2022-12-28T08:19:24.928Z,10.49
2022-12-28T08:21:53.204Z,10.5
2022-12-28T08:25:43.791Z,10.49
2022-12-28T08:28:12.030Z,10.48
2022-12-28T08:30:40.323Z,10.54
2022-12-28T08:33:08.543Z,10.55
2022-12-28T08:38:05.082Z,10.47
2022-12-28T08:43:09.799Z,10.43
2022-12-28T08:48:14.571Z,10.46
2022-12-28T08:51:56.944Z,10.44
2022-12-28T08:54:25.230Z,10.39
2022-12-28T08:58:15.818Z,10.43
2022-12-28T09:00:44.125Z,10.49
2022-12-28T09:08:00.665Z,10.56
2022-12-28T09:11:43.153Z,10.71
2022-12-28T09:14:13.504Z,10.69
2022-12-28T09:17:53.697Z,10.76
2022-12-28T09:22:50.309Z,10.74
2022-12-28T09:27:46.805Z,10.78
2022-12-28T09:30:15.175Z,10.79
2022-12-28T09:34:36.574Z,10.81
2022-12-28T09:40:16.336Z,10.73
2022-12-28T09:45:12.908Z,10.81
2022-12-28T09:50:09.522Z,10.89
2022-12-28T09:54:00.005Z,10.95
2022-12-28T09:59:04.714Z,11
2022-12-28T10:04:09.446Z,11.04
2022-12-28T10:10:20.205Z,10.93
2022-12-28T10:15:24.861Z,10.94
2022-12-28T10:19:15.497Z,10.93
2022-12-28T10:23:06.066Z,10.94
2022-12-28T10:28:10.739Z,10.87
2022-12-28T10:33:15.563Z,10.92
2022-12-28T10:38:12.027Z,10.93
2022-12-28T10:40:40.310Z,10.95
2022-12-28T10:44:38.705Z,10.92
2022-12-28T10:48:05.102Z,10.99
2022-12-28T10:53:01.612Z,11.1
2022-12-28T10:55:29.902Z,11.18
2022-12-28T10:59:12.292Z,11.22
2022-12-28T11:02:54.735Z,11.19
2022-12-28T11:07:51.213Z,11.26
2022-12-28T11:12:55.965Z,11.25
2022-12-28T11:18:00.684Z,11.16
2022-12-28T11:22:57.188Z,11.18
2022-12-28T11:28:01.927Z,11.22
2022-12-28T11:31:52.511Z,11.28
2022-12-28T11:35:43.096Z,11.29
2022-12-28T11:39:09.107Z,11.33
2022-12-28T11:42:51.492Z,11.3
2022-12-28T11:47:48.073Z,11.31
2022-12-28T11:50:16.366Z,11.35
2022-12-28T11:52:52.763Z,11.33
2022-12-28T11:57:57.531Z,11.34
2022-12-28T12:00:33.943Z,10.81
2022-12-28T12:03:10.446Z,11.39
2022-12-28T12:08:15.397Z,11.43
2022-12-28T12:13:19.858Z,11.56
2022-12-28T12:15:48.127Z,11.59
2022-12-28T12:19:38.790Z,11.62
2022-12-28T12:22:15.195Z,11.66
2022-12-28T12:25:57.610Z,11.68
2022-12-28T12:31:02.349Z,11.75
2022-12-28T12:33:30.536Z,11.79
2022-12-28T12:39:33.156Z,11.83
2022-12-28T12:43:23.667Z,11.83
2022-12-28T12:47:14.206Z,11.84
2022-12-28T12:49:42.480Z,11.84
2022-12-28T12:52:10.787Z,11.87
2022-12-28T12:54:39.034Z,11.88
2022-12-28T12:58:21.467Z,11.92
2022-12-28T13:03:26.444Z,11.95
2022-12-28T13:05:54.430Z,11.96
2022-12-28T13:08:22.730Z,11.96
2022-12-28T13:10:50.981Z,11.97
2022-12-28T13:14:41.677Z,11.95
2022-12-28T13:17:09.836Z,11.93
2022-12-28T13:23:28.695Z,11.91
2022-12-28T13:27:19.359Z,11.91
2022-12-28T13:29:47.542Z,11.91
2022-12-28T13:33:29.962Z,11.89
2022-12-28T13:38:26.497Z,11.9
2022-12-28T13:43:23.184Z,11.9
2022-12-28T13:47:05.404Z,11.9
2022-12-28T13:52:18.350Z,11.87
2022-12-28T14:13:26.804Z,11.83
2022-12-28T14:18:23.318Z,11.85
2022-12-28T14:20:51.582Z,11.88
2022-12-28T14:23:19.857Z,11.87
2022-12-28T14:25:48.089Z,11.9
2022-12-28T14:28:16.376Z,11.94
2022-12-28T14:30:44.666Z,11.98
2022-12-28T14:35:41.182Z,12.13
2022-12-28T14:38:09.420Z,12.22
2022-12-28T14:40:37.734Z,12.28
2022-12-28T14:43:05.930Z,12.31
2022-12-28T14:45:34.236Z,12.33
2022-12-28T14:48:02.475Z,12.33
2022-12-28T14:50:30.751Z,12.32
2022-12-28T14:53:56.826Z,12.3
2022-12-28T14:57:39.190Z,12.28
2022-12-28T15:01:21.840Z,12.26
2022-12-28T15:10:16.883Z,12.22
2022-12-28T15:15:13.521Z,12.13
2022-12-28T15:20:09.988Z,12.09
2022-12-28T15:24:00.759Z,12.05
2022-12-28T15:27:51.126Z,12.01
2022-12-28T15:32:55.918Z,11.94
2022-12-28T15:36:38.275Z,11.92
2022-12-28T15:39:06.572Z,11.88
2022-12-28T15:42:48.962Z,11.88
2022-12-28T15:47:45.472Z,11.82
2022-12-28T15:52:41.990Z,11.81
2022-12-28T15:55:10.425Z,11.81
2022-12-28T16:00:15.003Z,11.72
2022-12-28T16:05:11.584Z,11.19
2022-12-28T16:10:08.084Z,11.77
2022-12-28T16:17:24.655Z,11.85
2022-12-28T16:19:52.929Z,11.81
2022-12-28T16:22:21.205Z,11.8
2022-12-28T16:24:49.480Z,11.76
2022-12-28T16:27:17.727Z,11.74
2022-12-28T16:29:46.007Z,11.72
2022-12-28T16:32:14.232Z,11.72
2022-12-28T16:34:42.547Z,11.72
2022-12-28T16:37:10.794Z,11.72
2022-12-28T16:42:15.566Z,11.67
2022-12-28T16:52:08.591Z,11.61
2022-12-28T16:58:19.332Z,11.62
2022-12-28T17:00:55.761Z,11.61
2022-12-28T17:03:24.074Z,11.61
2022-12-28T17:07:06.364Z,11.61
2022-12-28T17:10:48.734Z,11.59
2022-12-28T17:13:17.026Z,11.55
2022-12-28T17:16:59.593Z,11.55
2022-12-28T17:20:41.916Z,11.55
2022-12-28T17:23:10.120Z,11.55
2022-12-28T17:28:14.837Z,11.54
2022-12-28T17:33:11.361Z,11.04
2022-12-28T17:44:10.370Z,11.51
2022-12-28T17:50:29.449Z,11.47
2022-12-28T17:52:57.520Z,11.47
2022-12-28T17:56:39.924Z,11.46
2022-12-28T18:00:22.322Z,11.44
2022-12-28T18:02:50.687Z,11.39
2022-12-28T18:06:32.949Z,11.42
2022-12-28T18:09:01.187Z,11.47
2022-12-28T18:12:43.611Z,11.53
2022-12-28T18:15:20.057Z,10.87
2022-12-28T18:20:16.603Z,11.25
2022-12-28T18:30:09.665Z,10.99
2022-12-28T18:40:19.452Z,10.81
2022-12-28T18:42:55.640Z,10.79
2022-12-28T18:46:46.301Z,10.83
2022-12-28T18:49:14.467Z,10.85
2022-12-28T18:52:56.849Z,10.89
2022-12-28T18:57:37.030Z,11.05
2022-12-28T19:03:47.825Z,11.17
2022-12-28T19:06:15.957Z,11.23
2022-12-28T19:11:20.636Z,11.31
2022-12-28T19:16:17.270Z,11.33
2022-12-28T19:20:07.841Z,11.33
2022-12-28T19:30:17.287Z,11.29
2022-12-28T19:40:18.490Z,11.22
2022-12-28T19:42:46.743Z,11.27
2022-12-28T19:45:15.001Z,11.39
2022-12-28T19:47:43.270Z,11.37
2022-12-28T19:50:11.569Z,10.82
2022-12-28T19:53:37.667Z,11.46
2022-12-28T19:56:05.809Z,11.48
2022-12-28T19:58:34.120Z,11.47
2022-12-28T20:01:02.518Z,11.44
2022-12-28T20:06:07.123Z,11.4
2022-12-28T20:12:17.747Z,11.37
2022-12-28T20:17:14.320Z,11.32
2022-12-28T20:22:10.876Z,11.26
2022-12-28T20:27:07.438Z,11.24
2022-12-28T20:29:43.837Z,11.22
2022-12-28T20:32:12.129Z,11.21
2022-12-28T20:34:40.302Z,11.23
2022-12-28T20:37:08.655Z,11.19
2022-12-28T20:39:36.862Z,11.17
2022-12-28T20:42:05.124Z,11.17
2022-12-28T20:45:52.347Z,11.18
2022-12-28T20:49:29.975Z,11.28
2022-12-28T20:51:58.217Z,11.33
2022-12-28T20:58:17.043Z,11.38
2022-12-28T21:03:13.600Z,11.36
2022-12-28T21:08:10.150Z,11.32
2022-12-28T21:19:17.347Z,11.21
2022-12-28T21:21:45.574Z,11.21
2022-12-28T21:25:28.023Z,11.22
2022-12-28T21:29:10.446Z,11.16
2022-12-28T21:31:38.792Z,11.16
2022-12-28T21:35:21.053Z,11.14
2022-12-28T21:39:03.490Z,11.16
2022-12-28T21:41:31.720Z,11.18
2022-12-28T21:45:22.379Z,11.2
2022-12-28T21:50:18.827Z,11.28
2022-12-28T21:55:15.397Z,11.43
2022-12-28T22:00:12.047Z,10.81
2022-12-28T22:05:08.450Z,11.42
2022-12-28T22:08:59.105Z,11.42
2022-12-28T22:11:27.316Z,11.45
2022-12-28T22:13:55.576Z,11.44
2022-12-28T22:16:23.977Z,11.47
2022-12-28T22:19:01.974Z,11.42
2022-12-28T22:21:20.380Z,11.43
2022-12-28T22:25:02.817Z,11.43
2022-12-28T22:28:45.173Z,11.37
2022-12-28T22:31:13.437Z,11.35
2022-12-28T22:36:18.278Z,11.38
2022-12-28T22:40:16.964Z,11.37
2022-12-28T22:45:13.536Z,11.33
2022-12-28T22:51:16.251Z,11.45
2022-12-28T22:56:12.520Z,11.43
2022-12-28T23:01:09.083Z,11.52
2022-12-28T23:06:05.657Z,11.54
2022-12-28T23:08:42.026Z,11.59
2022-12-28T23:11:10.269Z,11.62
2022-12-28T23:14:52.684Z,11.64
2022-12-28T23:18:35.077Z,11.71
2022-12-28T23:21:03.372Z,11.71
2022-12-28T23:23:31.652Z,11.72
2022-12-28T23:27:22.207Z,11.73
2022-12-28T23:29:50.492Z,11.76
2022-12-28T23:32:18.837Z,11.79
2022-12-28T23:36:09.311Z,11.82
2022-12-28T23:38:37.607Z,11.82
2022-12-28T23:41:05.877Z,11.8
2022-12-28T23:43:34.156Z,11.81
2022-12-28T23:46:02.443Z,11.82
2022-12-28T23:49:28.423Z,11.83
2022-12-28T23:51:56.676Z,11.84
2022-12-28T23:54:24.946Z,11.85
2022-12-28T23:58:07.684Z,11.87
